sensor_id;sensor_type;location;lat;lon;timestamp;P1;durP1;ratioP1;P2;durP2;ratioP2
65375;SDS011;51976;47.332;9.404;2024-01-25T00:00:48;0.00;;;0.00;;
65375;SDS011;51976;47.332;9.404;2024-01-25T00:03:13;0.00;;;0.00;;
65375;SDS011;51976;47.332;9.404;2024-01-25T00:05:39;0.00;;;0.00;;
65375;SDS011;51976;47.332;9.404;2024-01-25T00:08:04;0.00;;;0.00;;
65375;SDS011;51976;47.332;9.404;2024-01-25T00:10:30;0.00;;;0.00;;
65375;SDS011;51976;47.332;9.404;2024-01-25T00:12:55;0.10;;;0.00;;
65375;SDS011;51976;47.332;9.404;2024-01-25T00:15:21;0.00;;;0.00;;
65375;SDS011;51976;47.332;9.404;2024-01-25T00:17:46;0.00;;;0.00;;
65375;SDS011;51976;47.332;9.404;2024-01-25T00:20:11;0.17;;;0.00;;
65375;SDS011;51976;47.332;9.404;2024-01-25T00:22:37;0.20;;;0.00;;
65375;SDS011;51976;47.332;9.404;2024-01-25T00:25:03;0.10;;;0.00;;
65375;SDS011;51976;47.332;9.404;2024-01-25T00:27:29;1.08;;;0.00;;
65375;SDS011;51976;47.332;9.404;2024-01-25T00:29:54;0.32;;;0.03;;
65375;SDS011;51976;47.332;9.404;2024-01-25T00:32:19;0.28;;;0.00;;
65375;SDS011;51976;47.332;9.404;2024-01-25T00:34:45;0.15;;;0.03;;
65375;SDS011;51976;47.332;9.404;2024-01-25T00:37:11;0.00;;;0.00;;
65375;SDS011;51976;47.332;9.404;2024-01-25T00:39:36;0.20;;;0.00;;
65375;SDS011;51976;47.332;9.404;2024-01-25T00:42:05;0.10;;;0.00;;
65375;SDS011;51976;47.332;9.404;2024-01-25T00:44:31;0.20;;;0.00;;
65375;SDS011;51976;47.332;9.404;2024-01-25T00:46:57;0.10;;;0.10;;
65375;SDS011;51976;47.332;9.404;2024-01-25T00:49:23;0.90;;;0.10;;
65375;SDS011;51976;47.332;9.404;2024-01-25T00:51:49;0.60;;;0.05;;
65375;SDS011;51976;47.332;9.404;2024-01-25T00:54:18;0.30;;;0.00;;
65375;SDS011;51976;47.332;9.404;2024-01-25T00:56:44;1.55;;;0.10;;
65375;SDS011;51976;47.332;9.404;2024-01-25T00:59:10;0.00;;;0.00;;
65375;SDS011;51976;47.332;9.404;2024-01-25T01:01:36;0.22;;;0.08;;
65375;SDS011;51976;47.332;9.404;2024-01-25T01:04:02;1.95;;;0.10;;
65375;SDS011;51976;47.332;9.404;2024-01-25T01:06:28;0.25;;;0.00;;
65375;SDS011;51976;47.332;9.404;2024-01-25T01:08:53;0.20;;;0.00;;
65375;SDS011;51976;47.332;9.404;2024-01-25T01:11:19;0.40;;;0.13;;
65375;SDS011;51976;47.332;9.404;2024-01-25T01:13:44;0.82;;;0.10;;
65375;SDS011;51976;47.332;9.404;2024-01-25T01:16:10;0.17;;;0.10;;
65375;SDS011;51976;47.332;9.404;2024-01-25T01:18:35;0.32;;;0.10;;
65375;SDS011;51976;47.332;9.404;2024-01-25T01:21:01;1.27;;;0.00;;
65375;SDS011;51976;47.332;9.404;2024-01-25T01:23:27;0.88;;;0.10;;
65375;SDS011;51976;47.332;9.404;2024-01-25T01:25:52;0.20;;;0.00;;
65375;SDS011;51976;47.332;9.404;2024-01-25T01:28:17;0.52;;;0.00;;
65375;SDS011;51976;47.332;9.404;2024-01-25T01:30:43;0.20;;;0.20;;
65375;SDS011;51976;47.332;9.404;2024-01-25T01:33:09;3.47;;;0.40;;
65375;SDS011;51976;47.332;9.404;2024-01-25T01:35:34;1.95;;;0.10;;
65375;SDS011;51976;47.332;9.404;2024-01-25T01:38:00;0.82;;;0.20;;
65375;SDS011;51976;47.332;9.404;2024-01-25T01:40:25;0.45;;;0.20;;
65375;SDS011;51976;47.332;9.404;2024-01-25T01:42:50;1.30;;;0.10;;
65375;SDS011;51976;47.332;9.404;2024-01-25T01:45:16;0.40;;;0.00;;
65375;SDS011;51976;47.332;9.404;2024-01-25T01:47:41;0.03;;;0.00;;
65375;SDS011;51976;47.332;9.404;2024-01-25T01:50:07;1.15;;;0.03;;
65375;SDS011;51976;47.332;9.404;2024-01-25T01:52:34;0.10;;;0.00;;
65375;SDS011;51976;47.332;9.404;2024-01-25T01:55:00;0.75;;;0.00;;
65375;SDS011;51976;47.332;9.404;2024-01-25T01:57:26;0.40;;;0.10;;
65375;SDS011;51976;47.332;9.404;2024-01-25T01:59:52;0.10;;;0.08;;
65375;SDS011;51976;47.332;9.404;2024-01-25T02:02:17;0.10;;;0.00;;
65375;SDS011;51976;47.332;9.404;2024-01-25T02:04:43;0.17;;;0.00;;
65375;SDS011;51976;47.332;9.404;2024-01-25T02:07:09;0.10;;;0.00;;
65375;SDS011;51976;47.332;9.404;2024-01-25T02:09:34;0.22;;;0.00;;
65375;SDS011;51976;47.332;9.404;2024-01-25T02:12:01;0.05;;;0.00;;
65375;SDS011;51976;47.332;9.404;2024-01-25T02:14:27;0.08;;;0.00;;
65375;SDS011;51976;47.332;9.404;2024-01-25T02:16:52;0.50;;;0.00;;
65375;SDS011;51976;47.332;9.404;2024-01-25T02:19:17;0.10;;;0.00;;
65375;SDS011;51976;47.332;9.404;2024-01-25T02:21:43;1.08;;;0.10;;
65375;SDS011;51976;47.332;9.404;2024-01-25T02:24:08;0.43;;;0.10;;
65375;SDS011;51976;47.332;9.404;2024-01-25T02:26:34;0.32;;;0.10;;
65375;SDS011;51976;47.332;9.404;2024-01-25T02:29:00;0.40;;;0.00;;
65375;SDS011;51976;47.332;9.404;2024-01-25T02:31:25;0.43;;;0.10;;
65375;SDS011;51976;47.332;9.404;2024-01-25T02:33:51;0.45;;;0.00;;
65375;SDS011;51976;47.332;9.404;2024-01-25T02:36:16;0.10;;;0.00;;
65375;SDS011;51976;47.332;9.404;2024-01-25T02:38:42;0.30;;;0.00;;
65375;SDS011;51976;47.332;9.404;2024-01-25T02:41:07;0.30;;;0.10;;
65375;SDS011;51976;47.332;9.404;2024-01-25T02:43:32;0.20;;;0.10;;
65375;SDS011;51976;47.332;9.404;2024-01-25T02:45:58;0.10;;;0.00;;
65375;SDS011;51976;47.332;9.404;2024-01-25T02:48:23;0.00;;;0.00;;
65375;SDS011;51976;47.332;9.404;2024-01-25T02:50:49;0.20;;;0.10;;
65375;SDS011;51976;47.332;9.404;2024-01-25T02:53:14;0.00;;;0.00;;
65375;SDS011;51976;47.332;9.404;2024-01-25T02:55:39;0.00;;;0.00;;
65375;SDS011;51976;47.332;9.404;2024-01-25T02:58:05;0.00;;;0.00;;
65375;SDS011;51976;47.332;9.404;2024-01-25T03:00:30;0.00;;;0.00;;
65375;SDS011;51976;47.332;9.404;2024-01-25T03:02:56;0.03;;;0.00;;
65375;SDS011;51976;47.332;9.404;2024-01-25T03:05:21;0.00;;;0.00;;
65375;SDS011;51976;47.332;9.404;2024-01-25T03:07:46;0.75;;;0.08;;
65375;SDS011;51976;47.332;9.404;2024-01-25T03:10:12;0.32;;;0.00;;
65375;SDS011;51976;47.332;9.404;2024-01-25T03:12:38;0.30;;;0.00;;
65375;SDS011;51976;47.332;9.404;2024-01-25T03:15:03;0.17;;;0.00;;
65375;SDS011;51976;47.332;9.404;2024-01-25T03:17:29;0.10;;;0.00;;
65375;SDS011;51976;47.332;9.404;2024-01-25T03:19:55;0.10;;;0.10;;
65375;SDS011;51976;47.332;9.404;2024-01-25T03:22:20;0.38;;;0.03;;
65375;SDS011;51976;47.332;9.404;2024-01-25T03:24:47;0.00;;;0.00;;
65375;SDS011;51976;47.332;9.404;2024-01-25T03:27:12;0.00;;;0.00;;
65375;SDS011;51976;47.332;9.404;2024-01-25T03:29:42;0.00;;;0.00;;
65375;SDS011;51976;47.332;9.404;2024-01-25T03:32:08;0.00;;;0.00;;
65375;SDS011;51976;47.332;9.404;2024-01-25T03:34:34;0.20;;;0.00;;
65375;SDS011;51976;47.332;9.404;2024-01-25T03:37:00;0.45;;;0.00;;
65375;SDS011;51976;47.332;9.404;2024-01-25T03:39:25;0.30;;;0.00;;
65375;SDS011;51976;47.332;9.404;2024-01-25T03:41:51;0.20;;;0.00;;
65375;SDS011;51976;47.332;9.404;2024-01-25T03:44:16;0.88;;;0.00;;
65375;SDS011;51976;47.332;9.404;2024-01-25T03:46:41;0.28;;;0.10;;
65375;SDS011;51976;47.332;9.404;2024-01-25T03:49:07;0.30;;;0.00;;
65375;SDS011;51976;47.332;9.404;2024-01-25T03:51:32;0.15;;;0.00;;
65375;SDS011;51976;47.332;9.404;2024-01-25T03:53:58;0.20;;;0.00;;
65375;SDS011;51976;47.332;9.404;2024-01-25T03:56:23;0.00;;;0.00;;
65375;SDS011;51976;47.332;9.404;2024-01-25T03:58:49;0.10;;;0.00;;
65375;SDS011;51976;47.332;9.404;2024-01-25T04:01:14;0.47;;;0.10;;
65375;SDS011;51976;47.332;9.404;2024-01-25T04:03:40;0.75;;;0.10;;
65375;SDS011;51976;47.332;9.404;2024-01-25T04:06:06;0.28;;;0.17;;
65375;SDS011;51976;47.332;9.404;2024-01-25T04:08:31;0.32;;;0.17;;
65375;SDS011;51976;47.332;9.404;2024-01-25T04:10:57;0.10;;;0.10;;
65375;SDS011;51976;47.332;9.404;2024-01-25T04:13:22;0.75;;;0.10;;
65375;SDS011;51976;47.332;9.404;2024-01-25T04:15:48;1.73;;;0.10;;
65375;SDS011;51976;47.332;9.404;2024-01-25T04:18:13;0.40;;;0.10;;
65375;SDS011;51976;47.332;9.404;2024-01-25T04:20:39;0.10;;;0.05;;
65375;SDS011;51976;47.332;9.404;2024-01-25T04:23:06;0.20;;;0.10;;
65375;SDS011;51976;47.332;9.404;2024-01-25T04:25:32;0.30;;;0.10;;
65375;SDS011;51976;47.332;9.404;2024-01-25T04:27:57;0.20;;;0.10;;
65375;SDS011;51976;47.332;9.404;2024-01-25T04:30:22;0.17;;;0.10;;
65375;SDS011;51976;47.332;9.404;2024-01-25T04:32:48;0.20;;;0.10;;
65375;SDS011;51976;47.332;9.404;2024-01-25T04:35:13;0.10;;;0.08;;
65375;SDS011;51976;47.332;9.404;2024-01-25T04:37:39;0.30;;;0.10;;
65375;SDS011;51976;47.332;9.404;2024-01-25T04:40:04;0.30;;;0.10;;
65375;SDS011;51976;47.332;9.404;2024-01-25T04:42:31;0.28;;;0.20;;
65375;SDS011;51976;47.332;9.404;2024-01-25T04:44:56;0.00;;;0.00;;
65375;SDS011;51976;47.332;9.404;2024-01-25T04:47:22;0.10;;;0.10;;
65375;SDS011;51976;47.332;9.404;2024-01-25T04:49:47;0.50;;;0.10;;
65375;SDS011;51976;47.332;9.404;2024-01-25T04:52:12;0.15;;;0.10;;
65375;SDS011;51976;47.332;9.404;2024-01-25T04:54:38;0.25;;;0.20;;
65375;SDS011;51976;47.332;9.404;2024-01-25T04:57:03;0.93;;;0.50;;
65375;SDS011;51976;47.332;9.404;2024-01-25T04:59:31;1.15;;;0.68;;
65375;SDS011;51976;47.332;9.404;2024-01-25T05:01:59;0.60;;;0.40;;
65375;SDS011;51976;47.332;9.404;2024-01-25T05:04:25;1.35;;;0.63;;
65375;SDS011;51976;47.332;9.404;2024-01-25T05:06:53;0.70;;;0.47;;
65375;SDS011;51976;47.332;9.404;2024-01-25T05:09:18;1.55;;;0.85;;
65375;SDS011;51976;47.332;9.404;2024-01-25T05:11:43;1.60;;;0.75;;
65375;SDS011;51976;47.332;9.404;2024-01-25T05:14:09;0.82;;;0.50;;
65375;SDS011;51976;47.332;9.404;2024-01-25T05:16:34;0.73;;;0.40;;
65375;SDS011;51976;47.332;9.404;2024-01-25T05:19:02;1.40;;;0.70;;
65375;SDS011;51976;47.332;9.404;2024-01-25T05:21:28;0.90;;;0.50;;
65375;SDS011;51976;47.332;9.404;2024-01-25T05:23:53;1.10;;;0.60;;
65375;SDS011;51976;47.332;9.404;2024-01-25T05:26:19;0.80;;;0.40;;
65375;SDS011;51976;47.332;9.404;2024-01-25T05:28:44;1.08;;;0.60;;
65375;SDS011;51976;47.332;9.404;2024-01-25T05:31:10;1.20;;;0.52;;
65375;SDS011;51976;47.332;9.404;2024-01-25T05:33:38;1.30;;;0.75;;
65375;SDS011;51976;47.332;9.404;2024-01-25T05:36:04;2.15;;;1.17;;
65375;SDS011;51976;47.332;9.404;2024-01-25T05:38:31;2.80;;;1.15;;
65375;SDS011;51976;47.332;9.404;2024-01-25T05:40:57;0.77;;;0.40;;
65375;SDS011;51976;47.332;9.404;2024-01-25T05:43:22;0.40;;;0.30;;
65375;SDS011;51976;47.332;9.404;2024-01-25T05:45:48;0.45;;;0.20;;
65375;SDS011;51976;47.332;9.404;2024-01-25T05:48:14;0.95;;;0.30;;
65375;SDS011;51976;47.332;9.404;2024-01-25T05:50:39;0.30;;;0.10;;
65375;SDS011;51976;47.332;9.404;2024-01-25T05:53:05;0.55;;;0.30;;
65375;SDS011;51976;47.332;9.404;2024-01-25T05:55:30;0.43;;;0.20;;
65375;SDS011;51976;47.332;9.404;2024-01-25T05:57:56;0.40;;;0.28;;
65375;SDS011;51976;47.332;9.404;2024-01-25T06:00:21;0.40;;;0.20;;
65375;SDS011;51976;47.332;9.404;2024-01-25T06:02:47;0.52;;;0.10;;
65375;SDS011;51976;47.332;9.404;2024-01-25T06:05:12;0.30;;;0.10;;
65375;SDS011;51976;47.332;9.404;2024-01-25T06:07:38;0.30;;;0.10;;
65375;SDS011;51976;47.332;9.404;2024-01-25T06:10:03;1.65;;;0.30;;
65375;SDS011;51976;47.332;9.404;2024-01-25T06:12:29;2.55;;;0.20;;
65375;SDS011;51976;47.332;9.404;2024-01-25T06:14:54;0.60;;;0.20;;
65375;SDS011;51976;47.332;9.404;2024-01-25T06:17:20;0.15;;;0.10;;
65375;SDS011;51976;47.332;9.404;2024-01-25T06:19:45;0.30;;;0.10;;
65375;SDS011;51976;47.332;9.404;2024-01-25T06:22:11;0.77;;;0.10;;
65375;SDS011;51976;47.332;9.404;2024-01-25T06:24:37;0.10;;;0.10;;
65375;SDS011;51976;47.332;9.404;2024-01-25T06:27:03;0.15;;;0.10;;
65375;SDS011;51976;47.332;9.404;2024-01-25T06:29:29;0.05;;;0.00;;
65375;SDS011;51976;47.332;9.404;2024-01-25T06:31:54;0.77;;;0.15;;
65375;SDS011;51976;47.332;9.404;2024-01-25T06:34:19;2.05;;;0.10;;
65375;SDS011;51976;47.332;9.404;2024-01-25T06:36:45;1.20;;;0.13;;
65375;SDS011;51976;47.332;9.404;2024-01-25T06:39:10;0.22;;;0.10;;
65375;SDS011;51976;47.332;9.404;2024-01-25T06:41:36;1.48;;;0.20;;
65375;SDS011;51976;47.332;9.404;2024-01-25T06:44:01;1.40;;;0.20;;
65375;SDS011;51976;47.332;9.404;2024-01-25T06:46:27;0.57;;;0.25;;
65375;SDS011;51976;47.332;9.404;2024-01-25T06:48:53;0.35;;;0.20;;
65375;SDS011;51976;47.332;9.404;2024-01-25T06:51:18;0.77;;;0.28;;
65375;SDS011;51976;47.332;9.404;2024-01-25T06:53:44;0.22;;;0.20;;
65375;SDS011;51976;47.332;9.404;2024-01-25T06:56:10;0.35;;;0.20;;
65375;SDS011;51976;47.332;9.404;2024-01-25T06:58:35;0.50;;;0.30;;
65375;SDS011;51976;47.332;9.404;2024-01-25T07:01:01;0.68;;;0.20;;
65375;SDS011;51976;47.332;9.404;2024-01-25T07:03:26;0.38;;;0.20;;
65375;SDS011;51976;47.332;9.404;2024-01-25T07:05:52;0.25;;;0.20;;
65375;SDS011;51976;47.332;9.404;2024-01-25T07:08:17;1.15;;;0.38;;
65375;SDS011;51976;47.332;9.404;2024-01-25T07:10:44;0.47;;;0.22;;
65375;SDS011;51976;47.332;9.404;2024-01-25T07:13:09;0.90;;;0.28;;
65375;SDS011;51976;47.332;9.404;2024-01-25T07:15:35;1.30;;;0.40;;
65375;SDS011;51976;47.332;9.404;2024-01-25T07:18:01;2.88;;;0.40;;
65375;SDS011;51976;47.332;9.404;2024-01-25T07:20:26;0.88;;;0.40;;
65375;SDS011;51976;47.332;9.404;2024-01-25T07:22:52;0.80;;;0.40;;
65375;SDS011;51976;47.332;9.404;2024-01-25T07:25:18;2.40;;;0.40;;
65375;SDS011;51976;47.332;9.404;2024-01-25T07:27:44;0.32;;;0.20;;
65375;SDS011;51976;47.332;9.404;2024-01-25T07:30:10;1.00;;;0.30;;
65375;SDS011;51976;47.332;9.404;2024-01-25T07:32:37;0.82;;;0.30;;
65375;SDS011;51976;47.332;9.404;2024-01-25T07:35:06;0.57;;;0.30;;
65375;SDS011;51976;47.332;9.404;2024-01-25T07:37:32;0.30;;;0.20;;
65375;SDS011;51976;47.332;9.404;2024-01-25T07:39:57;0.30;;;0.20;;
65375;SDS011;51976;47.332;9.404;2024-01-25T07:42:22;0.50;;;0.20;;
65375;SDS011;51976;47.332;9.404;2024-01-25T07:44:48;3.00;;;0.30;;
65375;SDS011;51976;47.332;9.404;2024-01-25T07:47:14;1.35;;;0.30;;
65375;SDS011;51976;47.332;9.404;2024-01-25T07:49:42;0.63;;;0.20;;
65375;SDS011;51976;47.332;9.404;2024-01-25T07:52:09;0.65;;;0.20;;
65375;SDS011;51976;47.332;9.404;2024-01-25T07:54:35;0.35;;;0.10;;
65375;SDS011;51976;47.332;9.404;2024-01-25T07:57:01;0.38;;;0.20;;
65375;SDS011;51976;47.332;9.404;2024-01-25T07:59:27;1.05;;;0.30;;
65375;SDS011;51976;47.332;9.404;2024-01-25T08:01:53;0.32;;;0.17;;
65375;SDS011;51976;47.332;9.404;2024-01-25T08:04:19;0.55;;;0.20;;
65375;SDS011;51976;47.332;9.404;2024-01-25T08:06:44;0.47;;;0.10;;
65375;SDS011;51976;47.332;9.404;2024-01-25T08:09:10;0.57;;;0.20;;
65375;SDS011;51976;47.332;9.404;2024-01-25T08:11:36;0.15;;;0.10;;
65375;SDS011;51976;47.332;9.404;2024-01-25T08:14:02;0.55;;;0.13;;
65375;SDS011;51976;47.332;9.404;2024-01-25T08:16:29;0.10;;;0.10;;
65375;SDS011;51976;47.332;9.404;2024-01-25T08:18:54;0.52;;;0.20;;
65375;SDS011;51976;47.332;9.404;2024-01-25T08:21:20;0.32;;;0.10;;
65375;SDS011;51976;47.332;9.404;2024-01-25T08:23:46;0.30;;;0.20;;
65375;SDS011;51976;47.332;9.404;2024-01-25T08:26:12;0.47;;;0.10;;
65375;SDS011;51976;47.332;9.404;2024-01-25T08:28:39;0.60;;;0.10;;
65375;SDS011;51976;47.332;9.404;2024-01-25T08:31:05;0.10;;;0.08;;
65375;SDS011;51976;47.332;9.404;2024-01-25T08:33:31;0.10;;;0.08;;
65375;SDS011;51976;47.332;9.404;2024-01-25T08:35:56;0.35;;;0.10;;
65375;SDS011;51976;47.332;9.404;2024-01-25T08:38:21;0.45;;;0.20;;
65375;SDS011;51976;47.332;9.404;2024-01-25T08:40:47;1.80;;;0.70;;
65375;SDS011;51976;47.332;9.404;2024-01-25T08:43:12;2.08;;;0.93;;
65375;SDS011;51976;47.332;9.404;2024-01-25T08:45:38;3.42;;;1.42;;
65375;SDS011;51976;47.332;9.404;2024-01-25T08:48:03;0.93;;;0.50;;
65375;SDS011;51976;47.332;9.404;2024-01-25T08:50:30;3.00;;;1.30;;
65375;SDS011;51976;47.332;9.404;2024-01-25T08:52:55;3.85;;;1.58;;
65375;SDS011;51976;47.332;9.404;2024-01-25T08:55:22;3.78;;;0.93;;
65375;SDS011;51976;47.332;9.404;2024-01-25T08:57:49;3.88;;;1.85;;
65375;SDS011;51976;47.332;9.404;2024-01-25T09:00:14;1.70;;;0.80;;
65375;SDS011;51976;47.332;9.404;2024-01-25T09:02:40;2.53;;;1.20;;
65375;SDS011;51976;47.332;9.404;2024-01-25T09:05:06;2.45;;;1.30;;
65375;SDS011;51976;47.332;9.404;2024-01-25T09:07:32;3.65;;;1.10;;
65375;SDS011;51976;47.332;9.404;2024-01-25T09:09:57;3.42;;;1.33;;
65375;SDS011;51976;47.332;9.404;2024-01-25T09:12:23;2.03;;;1.10;;
65375;SDS011;51976;47.332;9.404;2024-01-25T09:14:48;3.15;;;1.38;;
65375;SDS011;51976;47.332;9.404;2024-01-25T09:17:14;2.83;;;1.42;;
65375;SDS011;51976;47.332;9.404;2024-01-25T09:19:46;2.83;;;1.17;;
65375;SDS011;51976;47.332;9.404;2024-01-25T09:22:12;1.75;;;0.82;;
65375;SDS011;51976;47.332;9.404;2024-01-25T09:24:38;1.95;;;0.85;;
65375;SDS011;51976;47.332;9.404;2024-01-25T09:27:07;1.33;;;0.60;;
65375;SDS011;51976;47.332;9.404;2024-01-25T09:29:34;1.25;;;0.63;;
65375;SDS011;51976;47.332;9.404;2024-01-25T09:32:00;2.53;;;1.13;;
65375;SDS011;51976;47.332;9.404;2024-01-25T09:34:26;1.80;;;0.80;;
65375;SDS011;51976;47.332;9.404;2024-01-25T09:36:52;1.27;;;0.30;;
65375;SDS011;51976;47.332;9.404;2024-01-25T09:39:18;0.50;;;0.20;;
65375;SDS011;51976;47.332;9.404;2024-01-25T09:41:44;0.85;;;0.30;;
65375;SDS011;51976;47.332;9.404;2024-01-25T09:44:10;0.30;;;0.10;;
65375;SDS011;51976;47.332;9.404;2024-01-25T09:46:36;0.85;;;0.22;;
65375;SDS011;51976;47.332;9.404;2024-01-25T09:49:03;1.85;;;0.30;;
65375;SDS011;51976;47.332;9.404;2024-01-25T09:51:33;2.15;;;0.75;;
65375;SDS011;51976;47.332;9.404;2024-01-25T09:56:31;1.52;;;0.57;;
65375;SDS011;51976;47.332;9.404;2024-01-25T09:58:58;0.10;;;0.10;;
65375;SDS011;51976;47.332;9.404;2024-01-25T10:01:24;0.20;;;0.10;;
65375;SDS011;51976;47.332;9.404;2024-01-25T10:03:50;0.30;;;0.10;;
65375;SDS011;51976;47.332;9.404;2024-01-25T10:06:17;0.20;;;0.00;;
65375;SDS011;51976;47.332;9.404;2024-01-25T10:08:49;0.47;;;0.20;;
65375;SDS011;51976;47.332;9.404;2024-01-25T10:11:16;0.22;;;0.10;;
65375;SDS011;51976;47.332;9.404;2024-01-25T10:13:46;0.63;;;0.20;;
65375;SDS011;51976;47.332;9.404;2024-01-25T10:16:13;0.75;;;0.10;;
65375;SDS011;51976;47.332;9.404;2024-01-25T10:18:41;0.15;;;0.00;;
65375;SDS011;51976;47.332;9.404;2024-01-25T10:21:10;1.48;;;0.10;;
65375;SDS011;51976;47.332;9.404;2024-01-25T10:23:37;0.20;;;0.10;;
65375;SDS011;51976;47.332;9.404;2024-01-25T10:26:03;2.88;;;0.30;;
65375;SDS011;51976;47.332;9.404;2024-01-25T10:28:30;0.13;;;0.10;;
65375;SDS011;51976;47.332;9.404;2024-01-25T10:30:56;0.55;;;0.20;;
65375;SDS011;51976;47.332;9.404;2024-01-25T10:33:23;0.98;;;0.20;;
65375;SDS011;51976;47.332;9.404;2024-01-25T10:35:49;0.35;;;0.17;;
65375;SDS011;51976;47.332;9.404;2024-01-25T10:38:17;1.15;;;0.30;;
65375;SDS011;51976;47.332;9.404;2024-01-25T10:40:43;0.60;;;0.30;;
65375;SDS011;51976;47.332;9.404;2024-01-25T10:43:09;0.22;;;0.10;;
65375;SDS011;51976;47.332;9.404;2024-01-25T10:45:35;0.70;;;0.20;;
65375;SDS011;51976;47.332;9.404;2024-01-25T10:48:00;0.50;;;0.15;;
65375;SDS011;51976;47.332;9.404;2024-01-25T10:50:26;0.30;;;0.15;;
65375;SDS011;51976;47.332;9.404;2024-01-25T10:52:52;0.10;;;0.00;;
65375;SDS011;51976;47.332;9.404;2024-01-25T10:55:17;0.08;;;0.08;;
65375;SDS011;51976;47.332;9.404;2024-01-25T10:57:44;0.70;;;0.17;;
65375;SDS011;51976;47.332;9.404;2024-01-25T11:00:11;1.65;;;0.35;;
65375;SDS011;51976;47.332;9.404;2024-01-25T11:02:41;2.17;;;0.20;;
65375;SDS011;51976;47.332;9.404;2024-01-25T11:05:13;2.08;;;0.40;;
65375;SDS011;51976;47.332;9.404;2024-01-25T11:07:46;0.50;;;0.30;;
65375;SDS011;51976;47.332;9.404;2024-01-25T11:10:19;0.85;;;0.30;;
65375;SDS011;51976;47.332;9.404;2024-01-25T11:12:47;0.28;;;0.17;;
65375;SDS011;51976;47.332;9.404;2024-01-25T11:15:19;0.63;;;0.30;;
65375;SDS011;51976;47.332;9.404;2024-01-25T11:17:54;0.70;;;0.20;;
65375;SDS011;51976;47.332;9.404;2024-01-25T11:20:21;0.45;;;0.20;;
65375;SDS011;51976;47.332;9.404;2024-01-25T11:22:48;0.80;;;0.45;;
65375;SDS011;51976;47.332;9.404;2024-01-25T11:25:13;1.13;;;0.50;;
65375;SDS011;51976;47.332;9.404;2024-01-25T11:27:45;0.98;;;0.52;;
65375;SDS011;51976;47.332;9.404;2024-01-25T11:30:11;0.80;;;0.40;;
65375;SDS011;51976;47.332;9.404;2024-01-25T11:32:38;0.40;;;0.30;;
65375;SDS011;51976;47.332;9.404;2024-01-25T11:35:04;1.23;;;0.40;;
65375;SDS011;51976;47.332;9.404;2024-01-25T11:37:30;0.88;;;0.45;;
65375;SDS011;51976;47.332;9.404;2024-01-25T11:39:55;0.75;;;0.50;;
65375;SDS011;51976;47.332;9.404;2024-01-25T11:42:20;0.55;;;0.28;;
65375;SDS011;51976;47.332;9.404;2024-01-25T11:44:47;0.50;;;0.35;;
65375;SDS011;51976;47.332;9.404;2024-01-25T11:47:12;1.38;;;0.57;;
65375;SDS011;51976;47.332;9.404;2024-01-25T11:49:39;1.58;;;0.68;;
65375;SDS011;51976;47.332;9.404;2024-01-25T11:52:04;1.27;;;0.70;;
65375;SDS011;51976;47.332;9.404;2024-01-25T11:54:30;3.67;;;2.22;;
65375;SDS011;51976;47.332;9.404;2024-01-25T11:56:55;1.60;;;1.02;;
65375;SDS011;51976;47.332;9.404;2024-01-25T11:59:21;3.58;;;1.60;;
65375;SDS011;51976;47.332;9.404;2024-01-25T12:01:47;10.95;;;6.05;;
65375;SDS011;51976;47.332;9.404;2024-01-25T12:04:12;8.82;;;4.70;;
65375;SDS011;51976;47.332;9.404;2024-01-25T12:06:39;2.25;;;1.33;;
65375;SDS011;51976;47.332;9.404;2024-01-25T12:09:08;10.73;;;5.32;;
65375;SDS011;51976;47.332;9.404;2024-01-25T12:11:34;5.40;;;3.30;;
65375;SDS011;51976;47.332;9.404;2024-01-25T12:13:59;7.38;;;4.07;;
65375;SDS011;51976;47.332;9.404;2024-01-25T12:16:24;5.00;;;2.72;;
65375;SDS011;51976;47.332;9.404;2024-01-25T12:18:50;3.33;;;1.80;;
65375;SDS011;51976;47.332;9.404;2024-01-25T12:21:15;5.20;;;2.00;;
65375;SDS011;51976;47.332;9.404;2024-01-25T12:23:42;4.20;;;2.22;;
65375;SDS011;51976;47.332;9.404;2024-01-25T12:26:09;3.78;;;2.28;;
65375;SDS011;51976;47.332;9.404;2024-01-25T12:28:36;2.67;;;1.50;;
65375;SDS011;51976;47.332;9.404;2024-01-25T12:31:03;1.27;;;0.65;;
65375;SDS011;51976;47.332;9.404;2024-01-25T12:33:29;3.75;;;1.55;;
65375;SDS011;51976;47.332;9.404;2024-01-25T12:35:56;1.30;;;0.70;;
65375;SDS011;51976;47.332;9.404;2024-01-25T12:38:23;1.50;;;0.70;;
65375;SDS011;51976;47.332;9.404;2024-01-25T12:40:50;1.83;;;1.00;;
65375;SDS011;51976;47.332;9.404;2024-01-25T12:43:17;2.17;;;0.90;;
65375;SDS011;51976;47.332;9.404;2024-01-25T12:45:43;0.75;;;0.30;;
65375;SDS011;51976;47.332;9.404;2024-01-25T12:48:10;0.65;;;0.30;;
65375;SDS011;51976;47.332;9.404;2024-01-25T12:50:35;0.65;;;0.30;;
65375;SDS011;51976;47.332;9.404;2024-01-25T12:53:01;1.10;;;0.32;;
65375;SDS011;51976;47.332;9.404;2024-01-25T12:55:28;1.73;;;0.30;;
65375;SDS011;51976;47.332;9.404;2024-01-25T12:57:54;0.50;;;0.20;;
65375;SDS011;51976;47.332;9.404;2024-01-25T13:00:21;0.70;;;0.40;;
65375;SDS011;51976;47.332;9.404;2024-01-25T13:02:47;0.57;;;0.38;;
65375;SDS011;51976;47.332;9.404;2024-01-25T13:05:12;0.45;;;0.20;;
65375;SDS011;51976;47.332;9.404;2024-01-25T13:07:39;0.40;;;0.25;;
65375;SDS011;51976;47.332;9.404;2024-01-25T13:10:05;1.05;;;0.25;;
65375;SDS011;51976;47.332;9.404;2024-01-25T13:12:31;0.82;;;0.35;;
65375;SDS011;51976;47.332;9.404;2024-01-25T13:14:56;0.38;;;0.20;;
65375;SDS011;51976;47.332;9.404;2024-01-25T13:17:21;0.75;;;0.52;;
65375;SDS011;51976;47.332;9.404;2024-01-25T13:19:49;1.33;;;0.40;;
65375;SDS011;51976;47.332;9.404;2024-01-25T13:22:15;1.55;;;0.25;;
65375;SDS011;51976;47.332;9.404;2024-01-25T13:24:43;0.77;;;0.40;;
65375;SDS011;51976;47.332;9.404;2024-01-25T13:27:09;1.38;;;0.30;;
65375;SDS011;51976;47.332;9.404;2024-01-25T13:29:35;1.08;;;0.45;;
65375;SDS011;51976;47.332;9.404;2024-01-25T13:32:01;0.88;;;0.57;;
65375;SDS011;51976;47.332;9.404;2024-01-25T13:34:26;0.57;;;0.40;;
65375;SDS011;51976;47.332;9.404;2024-01-25T13:36:52;1.65;;;0.70;;
65375;SDS011;51976;47.332;9.404;2024-01-25T13:39:17;1.27;;;0.75;;
65375;SDS011;51976;47.332;9.404;2024-01-25T13:41:43;1.15;;;0.70;;
65375;SDS011;51976;47.332;9.404;2024-01-25T13:44:08;2.55;;;1.05;;
65375;SDS011;51976;47.332;9.404;2024-01-25T13:46:34;3.20;;;1.17;;
65375;SDS011;51976;47.332;9.404;2024-01-25T13:48:59;2.17;;;0.90;;
65375;SDS011;51976;47.332;9.404;2024-01-25T13:51:25;1.60;;;0.95;;
65375;SDS011;51976;47.332;9.404;2024-01-25T13:53:50;1.85;;;0.90;;
65375;SDS011;51976;47.332;9.404;2024-01-25T13:56:16;1.27;;;0.60;;
65375;SDS011;51976;47.332;9.404;2024-01-25T13:58:42;2.28;;;0.63;;
65375;SDS011;51976;47.332;9.404;2024-01-25T14:01:07;1.38;;;0.60;;
65375;SDS011;51976;47.332;9.404;2024-01-25T14:03:33;3.45;;;0.73;;
65375;SDS011;51976;47.332;9.404;2024-01-25T14:05:59;1.92;;;0.82;;
65375;SDS011;51976;47.332;9.404;2024-01-25T14:08:29;1.63;;;0.80;;
65375;SDS011;51976;47.332;9.404;2024-01-25T14:10:54;0.60;;;0.40;;
65375;SDS011;51976;47.332;9.404;2024-01-25T14:13:20;1.33;;;0.60;;
65375;SDS011;51976;47.332;9.404;2024-01-25T14:15:46;0.88;;;0.60;;
65375;SDS011;51976;47.332;9.404;2024-01-25T14:18:11;1.67;;;0.70;;
65375;SDS011;51976;47.332;9.404;2024-01-25T14:20:37;0.98;;;0.55;;
65375;SDS011;51976;47.332;9.404;2024-01-25T14:23:02;1.27;;;0.70;;
65375;SDS011;51976;47.332;9.404;2024-01-25T14:25:28;1.05;;;0.70;;
65375;SDS011;51976;47.332;9.404;2024-01-25T14:27:54;1.92;;;0.60;;
65375;SDS011;51976;47.332;9.404;2024-01-25T14:30:19;0.65;;;0.45;;
65375;SDS011;51976;47.332;9.404;2024-01-25T14:32:45;0.93;;;0.50;;
65375;SDS011;51976;47.332;9.404;2024-01-25T14:35:12;0.80;;;0.43;;
65375;SDS011;51976;47.332;9.404;2024-01-25T14:37:38;1.27;;;0.43;;
65375;SDS011;51976;47.332;9.404;2024-01-25T14:40:03;1.25;;;0.90;;
65375;SDS011;51976;47.332;9.404;2024-01-25T14:42:29;4.25;;;1.10;;